Time;durP1;ratioP1;P1;durP2;ratioP2;P2;SDS_P1;SDS_P2;PMS_P1;PMS_P2;Temp;Humidity;BMP_temperature;BMP_pressure;BME280_temperature;BME280_humidity;BME280_pressure;Samples;Min_cycle;Max_cycle;Signal;HPM_P1;HPM_P2
2021/09/21 00:01:24;;;;;;;6.50;5.15;;;;;;;8.66;100.00;99992.22;1764854;80;21121;-69
2021/09/21 00:03:50;;;;;;;7.37;5.50;;;;;;;8.70;100.00;100002.08;1772018;80;21143;-69
2021/09/21 00:06:17;;;;;;;6.70;5.22;;;;;;;8.39;100.00;100009.98;1756075;80;21015;-69
2021/09/21 00:08:44;;;;;;;6.47;5.25;;;;;;;8.30;100.00;100022.70;1760939;81;20947;-69
2021/09/21 00:11:12;;;;;;;7.05;5.35;;;;;;;8.15;100.00;100021.84;1773967;80;21014;-69
2021/09/21 00:13:40;;;;;;;7.17;4.95;;;;;;;8.20;100.00;100013.03;1759146;81;21015;-70
2021/09/21 00:16:08;;;;;;;9.98;6.00;;;;;;;8.10;100.00;100007.25;1773875;80;20955;-70
2021/09/21 00:18:35;;;;;;;6.95;5.28;;;;;;;8.15;100.00;100007.06;1771364;80;20985;-69
2021/09/21 00:21:03;;;;;;;7.30;5.95;;;;;;;8.08;100.00;100011.33;1772932;80;20974;-69
2021/09/21 00:23:30;;;;;;;7.95;5.60;;;;;;;8.15;100.00;100010.16;1758235;81;21187;-70
2021/09/21 00:25:58;;;;;;;7.87;6.12;;;;;;;8.01;100.00;100001.31;1758569;81;20988;-70
2021/09/21 00:28:25;;;;;;;8.03;6.25;;;;;;;7.92;100.00;100025.22;1771192;80;21154;-70
2021/09/21 00:30:53;;;;;;;6.80;5.58;;;;;;;7.91;100.00;100035.27;1775127;80;20987;-70
2021/09/21 00:33:22;;;;;;;7.90;5.78;;;;;;;7.84;100.00;100034.36;1772310;80;21032;-70
2021/09/21 00:35:52;;;;;;;7.42;5.87;;;;;;;7.74;100.00;100025.97;1769530;80;21577;-70
2021/09/21 00:38:21;;;;;;;7.50;6.30;;;;;;;7.69;100.00;100020.46;1772263;80;20967;-69
2021/09/21 00:40:48;;;;;;;8.93;6.55;;;;;;;7.67;100.00;100013.35;1768452;80;21147;-70
2021/09/21 00:43:21;;;;;;;7.78;5.78;;;;;;;7.75;100.00;100008.11;1773608;80;21073;-70
2021/09/21 00:45:52;;;;;;;7.33;6.15;;;;;;;7.78;100.00;99993.02;1754997;81;20989;-70
2021/09/21 00:48:21;;;;;;;8.38;6.25;;;;;;;7.82;100.00;99992.19;1754161;81;21066;-70
2021/09/21 00:50:49;;;;;;;10.58;6.40;;;;;;;7.85;100.00;99998.34;1753801;81;20951;-69
2021/09/21 00:53:17;;;;;;;7.92;6.25;;;;;;;7.94;100.00;99990.00;1752792;81;20936;-70
2021/09/21 00:55:46;;;;;;;8.98;6.42;;;;;;;7.77;100.00;99999.69;1756334;80;21050;-70
2021/09/21 00:58:13;;;;;;;10.15;7.12;;;;;;;7.79;100.00;100011.98;1752263;81;21126;-70
2021/09/21 01:00:39;;;;;;;10.00;7.10;;;;;;;7.72;100.00;100013.64;1772788;80;21019;-70
2021/09/21 01:03:06;;;;;;;9.80;6.53;;;;;;;7.69;100.00;100012.67;1752283;81;21145;-70
2021/09/21 01:05:35;;;;;;;8.53;6.33;;;;;;;7.69;100.00;100023.05;1765844;80;21141;-70
2021/09/21 01:08:03;;;;;;;8.90;5.80;;;;;;;7.66;100.00;100027.31;1763276;80;20955;-70
2021/09/21 01:10:31;;;;;;;6.78;5.42;;;;;;;7.65;100.00;100042.53;1759574;80;21012;-70
2021/09/21 01:12:58;;;;;;;7.50;6.00;;;;;;;7.69;100.00;100044.64;1764495;80;21153;-65
2021/09/21 01:15:25;;;;;;;8.30;5.80;;;;;;;7.77;100.00;100048.98;1759248;81;20992;-71
2021/09/21 01:17:55;;;;;;;7.05;5.53;;;;;;;7.58;100.00;100050.20;1765601;80;22053;-70
2021/09/21 01:20:22;;;;;;;7.10;5.50;;;;;;;7.41;100.00;100053.33;1764169;80;20980;-70
2021/09/21 01:22:48;;;;;;;9.28;6.00;;;;;;;7.53;100.00;100049.39;1764841;80;21532;-69
2021/09/21 01:25:16;;;;;;;8.90;6.67;;;;;;;7.73;100.00;100056.30;1762454;80;21494;-69
2021/09/21 01:27:45;;;;;;;8.20;6.15;;;;;;;7.72;100.00;100058.55;1723904;82;21092;-69
2021/09/21 01:30:13;;;;;;;7.85;6.17;;;;;;;7.78;100.00;100044.91;1705976;83;21114;-69
2021/09/21 01:32:39;;;;;;;7.12;6.03;;;;;;;7.91;100.00;100037.86;1756612;79;21003;-69
2021/09/21 01:35:08;;;;;;;7.75;5.90;;;;;;;8.02;100.00;100042.66;1748109;81;21058;-70
2021/09/21 01:37:41;;;;;;;9.30;5.70;;;;;;;8.10;100.00;100041.00;1757854;81;20988;-73
2021/09/21 01:40:08;;;;;;;6.40;5.37;;;;;;;8.31;100.00;100042.48;1758844;81;21012;-72
2021/09/21 01:42:37;;;;;;;10.95;6.28;;;;;;;8.44;100.00;100038.84;1756937;81;21158;-72
2021/09/21 01:45:06;;;;;;;6.45;5.30;;;;;;;8.62;100.00;100039.03;1740850;81;21536;-70
2021/09/21 01:47:32;;;;;;;6.67;5.10;;;;;;;8.72;100.00;100033.91;1757080;81;21547;-69
2021/09/21 01:52:45;;;;;;;6.33;4.80;;;;;;;8.97;100.00;100032.36;1753784;81;21011;-70
2021/09/21 01:55:20;;;;;;;6.93;5.10;;;;;;;9.19;100.00;100030.68;1755495;81;22103;-69
2021/09/21 02:00:25;;;;;;;9.57;6.43;;;;;;;9.34;100.00;100034.09;1756910;81;21854;-71
2021/09/21 02:02:51;;;;;;;6.90;5.27;;;;;;;9.42;100.00;100036.59;1750889;81;21299;-69
2021/09/21 02:05:18;;;;;;;6.23;5.43;;;;;;;9.62;100.00;100051.64;1747910;81;21105;-70
2021/09/21 02:07:45;;;;;;;7.60;5.40;;;;;;;9.59;100.00;100049.42;1750684;81;21235;-71
2021/09/21 02:10:12;;;;;;;6.30;5.60;;;;;;;9.75;100.00;100050.52;1755424;81;21279;-69
2021/09/21 02:12:38;;;;;;;7.33;5.83;;;;;;;9.73;100.00;100035.55;1760738;81;21356;-69
2021/09/21 02:15:06;;;;;;;7.47;5.83;;;;;;;9.70;100.00;100025.53;1758206;81;21603;-69
2021/09/21 02:17:33;;;;;;;8.03;5.70;;;;;;;9.73;100.00;100017.34;1760645;81;21656;-69
2021/09/21 02:19:59;;;;;;;6.63;5.23;;;;;;;9.69;100.00;100013.48;1752468;81;21174;-69
2021/09/21 02:22:26;;;;;;;7.20;5.03;;;;;;;9.69;100.00;100006.98;1758344;80;21254;-71
2021/09/21 02:24:56;;;;;;;7.30;5.93;;;;;;;9.71;100.00;100017.53;1759184;80;21332;-72
2021/09/21 02:27:24;;;;;;;11.27;7.53;;;;;;;9.75;100.00;100019.27;1759474;80;21242;-69
2021/09/21 02:29:50;;;;;;;11.57;7.83;;;;;;;9.74;100.00;100011.16;1761109;80;21225;-70
2021/09/21 02:32:18;;;;;;;10.80;8.40;;;;;;;9.83;100.00;100017.86;1757261;81;21264;-69
2021/09/21 02:34:46;;;;;;;11.73;8.20;;;;;;;9.75;100.00;100017.97;1764529;80;21219;-69
2021/09/21 02:37:14;;;;;;;11.50;8.10;;;;;;;9.90;100.00;100013.53;1760042;80;21123;-70
2021/09/21 02:39:41;;;;;;;12.70;8.47;;;;;;;9.92;100.00;99997.22;1761321;81;21327;-71
2021/09/21 02:42:09;;;;;;;10.83;8.53;;;;;;;9.96;100.00;100007.59;1762185;80;21233;-69
2021/09/21 02:44:36;;;;;;;10.73;8.40;;;;;;;10.01;100.00;100021.36;1762522;81;21227;-72
2021/09/21 02:47:04;;;;;;;13.20;8.43;;;;;;;10.15;100.00;100023.58;1758463;80;20998;-68
2021/09/21 02:49:32;;;;;;;9.10;7.07;;;;;;;10.19;100.00;100024.35;1759803;80;21217;-72
2021/09/21 02:52:00;;;;;;;10.00;6.70;;;;;;;10.28;100.00;100023.75;1757277;79;21175;-69
2021/09/21 02:54:27;;;;;;;7.57;6.47;;;;;;;10.39;100.00;100031.06;1754332;81;21533;-68
2021/09/21 02:56:54;;;;;;;8.50;6.37;;;;;;;10.64;100.00;100022.83;1762911;80;23162;-68
2021/09/21 02:59:21;;;;;;;8.50;6.43;;;;;;;10.66;100.00;100021.66;1756156;81;21719;-68
2021/09/21 03:01:48;;;;;;;8.57;6.33;;;;;;;10.38;100.00;100021.64;1774374;79;21382;-69
2021/09/21 03:04:24;;;;;;;7.80;6.47;;;;;;;10.31;100.00;100022.58;1777847;79;21601;-70
2021/09/21 03:06:51;;;;;;;6.77;5.63;;;;;;;10.27;100.00;100025.25;1770095;80;21673;-69
2021/09/21 03:09:54;;;;;;;7.47;6.23;;;;;;;10.27;100.00;100023.45;1785152;80;21308;-70
2021/09/21 03:11:56;;;;;;;6.93;5.60;;;;;;;10.30;100.00;100017.84;1775385;79;21321;-69
2021/09/21 03:17:09;;;;;;;7.57;5.90;;;;;;;10.38;100.00;100013.00;1725832;83;21234;-71
2021/09/21 03:19:35;;;;;;;8.33;6.40;;;;;;;10.46;100.00;100024.62;1751683;81;21262;-69
2021/09/21 03:22:03;;;;;;;6.90;5.80;;;;;;;10.41;100.00;100026.45;1751469;81;21150;-69
2021/09/21 03:24:33;;;;;;;7.23;5.73;;;;;;;10.45;100.00;100022.98;1752425;81;21231;-69
2021/09/21 03:26:59;;;;;;;7.60;6.00;;;;;;;10.43;100.00;100018.47;1752617;81;21317;-69
2021/09/21 03:29:26;;;;;;;10.77;7.90;;;;;;;10.51;100.00;100018.84;1751191;81;21176;-69
2021/09/21 03:31:55;;;;;;;9.43;7.43;;;;;;;10.70;100.00;100012.97;1777601;80;21695;-69
2021/09/21 03:34:24;;;;;;;8.30;6.93;;;;;;;10.68;100.00;100018.85;1783091;79;21731;-72
2021/09/21 03:36:50;;;;;;;8.83;7.53;;;;;;;10.76;100.00;100023.95;1780301;80;21160;-68
2021/09/21 03:39:18;;;;;;;9.30;7.80;;;;;;;10.71;100.00;100023.19;1782291;80;21151;-71
2021/09/21 03:41:46;;;;;;;9.63;7.43;;;;;;;10.98;100.00;100012.14;1725064;81;21327;-68
2021/09/21 03:44:14;;;;;;;9.17;6.53;;;;;;;10.96;100.00;100009.23;1749940;81;21213;-67
2021/09/21 03:46:41;;;;;;;10.27;7.17;;;;;;;10.86;100.00;100013.17;1775840;80;21834;-70
2021/09/21 03:49:09;;;;;;;8.47;7.13;;;;;;;10.62;100.00;100017.02;1777960;79;21322;-72
2021/09/21 03:51:35;;;;;;;8.43;7.43;;;;;;;10.59;100.00;100022.11;1781429;80;21790;-68
2021/09/21 03:54:04;;;;;;;9.37;6.97;;;;;;;10.64;100.00;100022.33;1782965;80;21255;-67
2021/09/21 03:56:31;;;;;;;8.27;6.47;;;;;;;10.62;100.00;100026.14;1777857;80;21214;-69
2021/09/21 03:58:58;;;;;;;9.57;7.03;;;;;;;10.52;100.00;100022.55;1775159;80;22077;-63
2021/09/21 04:01:25;;;;;;;14.43;6.67;;;;;;;10.67;100.00;100012.03;1776912;78;21399;-68
2021/09/21 04:03:51;;;;;;;8.33;6.73;;;;;;;10.69;100.00;100013.47;1773234;78;21198;-65
2021/09/21 04:06:20;;;;;;;8.77;6.37;;;;;;;10.59;100.00;100010.88;1771832;78;21295;-63
2021/09/21 04:08:46;;;;;;;9.50;7.23;;;;;;;10.71;100.00;100011.96;1772182;78;21200;-76
2021/09/21 04:11:12;;;;;;;9.80;7.20;;;;;;;10.81;100.00;100016.36;1770817;78;22502;-75
2021/09/21 04:13:39;;;;;;;7.30;6.30;;;;;;;10.83;100.00;100009.13;1774563;78;21268;-63
2021/09/21 04:16:05;;;;;;;8.97;7.23;;;;;;;10.92;100.00;100013.22;1775270;78;21336;-64
2021/09/21 04:18:32;;;;;;;9.27;7.30;;;;;;;10.82;100.00;100007.53;1776295;78;21278;-63
2021/09/21 04:20:58;;;;;;;8.57;6.57;;;;;;;10.82;100.00;100011.44;1771526;78;21241;-65
2021/09/21 04:23:25;;;;;;;8.00;6.63;;;;;;;10.93;100.00;100007.50;1769350;78;21220;-74
2021/09/21 04:25:52;;;;;;;8.93;7.00;;;;;;;10.90;100.00;100003.97;1775333;78;21237;-64
2021/09/21 04:28:20;;;;;;;9.37;6.87;;;;;;;11.02;100.00;99998.52;1768049;78;21349;-63
2021/09/21 04:30:49;;;;;;;10.40;7.57;;;;;;;10.98;100.00;99998.59;1768474;78;21722;-61
2021/09/21 04:33:15;;;;;;;9.13;6.40;;;;;;;10.94;100.00;100003.89;1773618;78;21898;-70
2021/09/21 04:35:44;;;;;;;9.87;6.87;;;;;;;10.84;100.00;99996.92;1777923;78;21229;-61
2021/09/21 04:38:10;;;;;;;9.43;6.60;;;;;;;10.87;100.00;99998.66;1776146;78;21409;-63
2021/09/21 04:40:39;;;;;;;9.03;6.40;;;;;;;10.92;100.00;100006.70;1775258;78;21448;-62
2021/09/21 04:43:06;;;;;;;10.63;7.40;;;;;;;10.92;100.00;100006.70;1777786;78;21250;-69
2021/09/21 04:45:36;;;;;;;8.53;5.47;;;;;;;10.88;100.00;100008.59;1773453;78;21436;-65
2021/09/21 04:48:04;;;;;;;6.77;6.00;;;;;;;10.89;100.00;100012.30;1780686;78;21765;-64
2021/09/21 04:50:31;;;;;;;8.53;6.23;;;;;;;11.12;100.00;100011.23;1755831;79;21789;-62
2021/09/21 04:52:57;;;;;;;9.80;7.23;;;;;;;11.25;100.00;100008.70;1772441;78;21367;-64
2021/09/21 04:55:24;;;;;;;8.47;6.83;;;;;;;11.39;100.00;100007.74;1769003;78;21433;-73
2021/09/21 04:57:52;;;;;;;8.77;7.10;;;;;;;11.39;100.00;100007.74;1772680;78;21943;-66
2021/09/21 05:00:19;;;;;;;11.23;7.37;;;;;;;11.60;100.00;100013.36;1776820;78;21303;-63
2021/09/21 05:02:45;;;;;;;8.50;6.53;;;;;;;11.68;100.00;100004.55;1779579;78;21920;-64
2021/09/21 05:05:12;;;;;;;10.20;7.60;;;;;;;11.79;100.00;99999.27;1778488;78;22017;-65
2021/09/21 05:07:41;;;;;;;7.73;6.70;;;;;;;11.79;100.00;99999.27;1779748;78;21553;-67
2021/09/21 05:10:09;;;;;;;8.90;6.70;;;;;;;11.91;100.00;99997.20;1777184;79;21397;-65
2021/09/21 05:12:37;;;;;;;8.63;6.27;;;;;;;12.12;100.00;99988.88;1779272;78;22178;-64
2021/09/21 05:15:04;;;;;;;10.23;7.13;;;;;;;12.25;100.00;99983.69;1782247;78;21436;-65
2021/09/21 05:17:31;;;;;;;8.53;6.97;;;;;;;12.25;100.00;99983.69;1783915;78;21741;-68
2021/09/21 05:19:59;;;;;;;7.00;6.30;;;;;;;12.22;100.00;99915.34;1781353;78;21705;-66
2021/09/21 05:22:28;;;;;;;9.60;6.43;;;;;;;12.58;100.00;99972.43;1783906;78;21653;-66
2021/09/21 05:24:57;;;;;;;7.60;6.43;;;;;;;12.98;100.00;99979.68;1779891;78;21602;-73
2021/09/21 05:27:24;;;;;;;7.50;6.40;;;;;;;12.98;100.00;99979.68;1777957;78;21542;-75
2021/09/21 05:29:53;;;;;;;8.33;6.83;;;;;;;12.99;100.00;99972.63;1776950;78;23165;-66
2021/09/21 05:32:19;;;;;;;7.50;6.07;;;;;;;13.09;100.00;99974.32;1777295;78;22061;-65
2021/09/21 05:34:47;;;;;;;8.33;6.20;;;;;;;13.28;100.00;99970.86;1748331;80;22237;-66
2021/09/21 05:37:13;;;;;;;8.07;6.37;;;;;;;13.28;100.00;99970.86;1741405;81;21152;-74
2021/09/21 05:39:40;;;;;;;9.07;6.53;;;;;;;13.39;100.00;99974.65;1780707;78;21757;-69
2021/09/21 05:42:07;;;;;;;9.27;8.00;;;;;;;13.46;100.00;99973.31;1780518;78;20991;-66
2021/09/21 05:44:36;;;;;;;9.17;7.00;;;;;;;13.38;100.00;99966.00;1778955;78;21500;-66
2021/09/21 05:47:02;;;;;;;7.80;6.57;;;;;;;13.52;100.00;99969.84;1779093;79;20985;-75
2021/09/21 05:49:29;;;;;;;7.80;6.37;;;;;;;13.68;100.00;99969.89;1776170;78;21104;-67
2021/09/21 05:51:57;;;;;;;7.50;6.67;;;;;;;13.84;100.00;99967.56;1784668;78;21093;-66
2021/09/21 05:54:23;;;;;;;8.33;7.20;;;;;;;13.88;100.00;99964.81;1776307;78;20998;-70
2021/09/21 05:56:50;;;;;;;8.00;7.13;;;;;;;14.05;100.00;99965.59;1784925;78;21570;-66
2021/09/21 05:59:16;;;;;;;7.67;6.73;;;;;;;13.93;100.00;99962.06;1781714;78;20998;-76
2021/09/21 06:01:44;;;;;;;7.50;6.47;;;;;;;13.96;100.00;99959.82;1778278;78;21380;-67
2021/09/21 06:04:12;;;;;;;8.50;6.43;;;;;;;14.08;100.00;99957.31;1782717;78;20984;-66
2021/09/21 06:06:40;;;;;;;7.57;6.77;;;;;;;14.24;100.00;99953.36;1774887;78;21519;-67
2021/09/21 06:09:08;;;;;;;7.27;6.47;;;;;;;14.48;100.00;99958.31;1779192;78;21140;-72
2021/09/21 06:11:34;;;;;;;7.83;7.03;;;;;;;14.48;100.00;99951.25;1774744;78;21059;-69
2021/09/21 06:14:01;;;;;;;7.60;6.80;;;;;;;14.52;100.00;99954.27;1780125;78;22226;-68
2021/09/21 06:16:28;;;;;;;8.37;6.07;;;;;;;14.74;100.00;99954.16;1785700;78;20941;-66
2021/09/21 06:18:57;;;;;;;9.13;7.13;;;;;;;15.03;100.00;99954.44;1781262;78;21472;-73
2021/09/21 06:21:24;;;;;;;8.67;7.13;;;;;;;15.25;100.00;99956.11;1782522;78;21049;-75
2021/09/21 06:23:51;;;;;;;7.80;7.00;;;;;;;15.50;100.00;99950.75;1778254;78;21132;-68
2021/09/21 06:26:18;;;;;;;9.60;7.67;;;;;;;15.64;100.00;99956.09;1777956;78;21143;-68
2021/09/21 06:28:44;;;;;;;7.40;6.33;;;;;;;15.88;100.00;99954.91;1749716;80;20949;-68
2021/09/21 06:31:11;;;;;;;8.03;6.70;;;;;;;16.14;100.00;99957.62;1740556;81;21028;-73
2021/09/21 06:33:37;;;;;;;9.13;7.30;;;;;;;16.56;100.00;99943.09;1736570;82;21026;-67
2021/09/21 06:36:04;;;;;;;7.73;6.70;;;;;;;16.71;100.00;99949.48;1731648;81;21368;-66
2021/09/21 06:38:37;;;;;;;10.10;7.50;;;;;;;16.80;100.00;99939.94;1784667;78;21168;-64
2021/09/21 06:41:05;;;;;;;9.20;7.30;;;;;;;17.16;100.00;99938.80;1789165;78;21009;-73
2021/09/21 06:43:32;;;;;;;7.80;7.00;;;;;;;17.79;100.00;99934.45;1776464;78;21059;-64
2021/09/21 06:46:01;;;;;;;8.20;7.17;;;;;;;18.80;100.00;99923.84;1782171;78;21011;-63
2021/09/21 06:48:27;;;;;;;6.27;5.67;;;;;;;19.51;100.00;99921.98;1780374;78;21555;-65
2021/09/21 06:50:54;;;;;;;6.70;5.77;;;;;;;20.23;100.00;99926.04;1777519;78;21496;-65
2021/09/21 06:53:21;;;;;;;7.13;5.63;;;;;;;21.07;100.00;99913.77;1781515;78;21054;-71
2021/09/21 06:55:49;;;;;;;5.90;5.23;;;;;;;22.29;96.77;99912.55;1748608;80;21094;-63
2021/09/21 06:58:15;;;;;;;6.90;5.23;;;;;;;23.70;71.60;99914.58;1739339;81;20938;-61
2021/09/21 07:00:45;;;;;;;5.83;4.30;;;;;;;24.48;60.92;99911.75;1740982;81;21095;-63
2021/09/21 07:03:11;;;;;;;15.50;4.60;;;;;;;25.32;55.99;99907.78;1738402;80;23161;-72
2021/09/21 07:05:37;;;;;;;5.78;5.22;;;;;;;25.76;50.26;99902.53;1743603;81;21009;-62
2021/09/21 07:08:04;;;;;;;5.00;4.40;;;;;;;25.70;46.83;99897.84;1782110;78;20971;-64
2021/09/21 07:10:31;;;;;;;6.08;4.87;;;;;;;25.79;45.58;99900.11;1784154;78;20965;-63
2021/09/21 07:12:57;;;;;;;5.05;4.55;;;;;;;25.41;45.55;99900.14;1781314;78;20903;-64
2021/09/21 07:15:24;;;;;;;4.60;4.17;;;;;;;25.45;45.77;99903.81;1780400;78;21090;-74
2021/09/21 07:17:52;;;;;;;3.47;3.05;;;;;;;24.91;45.62;99905.09;1783656;78;21448;-64
2021/09/21 07:20:23;;;;;;;5.25;3.70;;;;;;;24.99;45.73;99904.98;1780624;78;21076;-63
2021/09/21 07:22:50;;;;;;;3.92;3.12;;;;;;;25.39;44.68;99898.33;1777386;78;21002;-66
2021/09/21 07:25:18;;;;;;;3.10;2.40;;;;;;;25.65;44.82;99896.05;1776438;80;21420;-70
2021/09/21 07:27:47;;;;;;;5.03;3.85;;;;;;;25.90;42.22;99886.83;1781908;78;22530;-64
2021/09/21 07:30:15;;;;;;;3.65;3.25;;;;;;;26.52;40.99;99883.04;1771817;78;20930;-65
2021/09/21 07:32:43;;;;;;;4.40;3.60;;;;;;;26.68;40.67;99879.77;1747696;80;21121;-63
2021/09/21 07:35:10;;;;;;;3.85;3.45;;;;;;;26.81;40.51;99871.47;1740902;81;21062;-72
2021/09/21 07:37:37;;;;;;;4.03;3.60;;;;;;;27.30;40.68;99871.75;1734371;82;21188;-64
2021/09/21 07:40:06;;;;;;;3.80;2.98;;;;;;;27.59;39.21;99864.64;1780797;78;22445;-62
2021/09/21 07:42:33;;;;;;;5.20;2.98;;;;;;;27.95;37.91;99871.23;1776722;78;20969;-64
2021/09/21 07:45:00;;;;;;;5.40;2.67;;;;;;;28.16;36.49;99868.81;1781172;78;21464;-63
2021/09/21 07:47:28;;;;;;;3.90;2.90;;;;;;;27.85;35.97;99860.80;1777844;78;21038;-63
2021/09/21 07:49:55;;;;;;;4.65;2.80;;;;;;;27.49;36.29;99855.52;1779918;78;21040;-65
2021/09/21 07:52:23;;;;;;;4.03;3.35;;;;;;;27.32;37.15;99862.89;1779505;78;21155;-62
2021/09/21 07:54:50;;;;;;;3.80;3.40;;;;;;;27.31;36.79;99856.72;1779437;78;21476;-66
2021/09/21 07:57:18;;;;;;;4.70;3.87;;;;;;;26.96;37.06;99861.54;1779368;78;21471;-75
2021/09/21 07:59:46;;;;;;;4.35;3.30;;;;;;;26.91;36.61;99863.23;1786858;78;21028;-64
2021/09/21 08:02:13;;;;;;;3.50;3.20;;;;;;;26.84;37.29;99860.18;1780440;78;20931;-62
2021/09/21 08:04:43;;;;;;;3.92;3.52;;;;;;;26.76;37.83;99862.78;1721495;81;20968;-76
2021/09/21 08:07:10;;;;;;;4.10;3.42;;;;;;;26.83;36.90;99858.61;1737957;80;20976;-79
2021/09/21 08:09:40;;;;;;;3.77;3.05;;;;;;;26.54;36.86;99858.16;1740355;80;21102;-63
2021/09/21 08:12:08;;;;;;;3.45;3.15;;;;;;;26.18;37.38;99862.85;1733193;81;20949;-63
2021/09/21 08:14:38;;;;;;;3.30;2.77;;;;;;;25.89;38.16;99867.90;1727779;81;21138;-62
2021/09/21 08:17:06;;;;;;;;;;;;;;;25.62;38.39;99869.15;1744130;81;21125;-72
2021/09/21 08:19:34;;;;;;;3.40;2.98;;;;;;;25.09;39.42;99862.73;1772248;78;21229;-61
2021/09/21 08:22:01;;;;;;;3.98;3.12;;;;;;;24.74;40.08;99868.81;1771427;78;21010;-62
2021/09/21 08:24:29;;;;;;;4.80;2.60;;;;;;;24.43;40.55;99861.16;1771272;78;20983;-64
2021/09/21 08:26:57;;;;;;;3.40;2.50;;;;;;;24.64;41.29;99856.94;1764796;78;21539;-64
2021/09/21 08:29:23;;;;;;;3.57;2.63;;;;;;;24.89;40.51;99849.13;1776200;78;21124;-65
2021/09/21 08:31:50;;;;;;;4.77;2.80;;;;;;;25.53;40.28;99849.53;1776470;78;21049;-63
2021/09/21 08:34:18;;;;;;;4.47;2.50;;;;;;;26.05;39.48;99852.94;1774951;80;20955;-63
2021/09/21 08:36:44;;;;;;;3.50;2.60;;;;;;;26.15;37.89;99855.42;1772550;78;21106;-71
2021/09/21 08:39:11;;;;;;;4.27;3.53;;;;;;;26.40;37.73;99856.27;1773992;78;22012;-64
2021/09/21 08:41:39;;;;;;;4.17;3.12;;;;;;;26.46;37.33;99853.52;1775322;78;21127;-64
2021/09/21 08:44:05;;;;;;;3.72;3.12;;;;;;;26.80;36.67;99855.19;1773105;78;20951;-62
2021/09/21 08:46:33;;;;;;;5.72;3.72;;;;;;;27.03;36.58;99855.23;1775385;78;21491;-72
2021/09/21 08:49:02;;;;;;;4.20;3.42;;;;;;;27.06;36.02;99843.93;1774769;78;21283;-65
2021/09/21 08:51:28;;;;;;;4.40;3.30;;;;;;;27.20;35.47;99850.06;1772391;78;22004;-62
2021/09/21 08:53:55;;;;;;;4.40;3.58;;;;;;;27.10;35.47;99849.70;1775886;78;21138;-63
2021/09/21 08:56:21;;;;;;;5.15;3.17;;;;;;;26.71;35.92;99860.20;1775430;78;20962;-62
2021/09/21 08:59:05;;;;;;;3.97;3.20;;;;;;;26.32;36.17;99852.94;1773667;78;20994;-74
2021/09/21 09:01:41;;;;;;;4.03;3.63;;;;;;;25.84;36.57;99855.20;1771925;78;20997;-63
2021/09/21 09:04:07;;;;;;;3.93;3.20;;;;;;;25.46;37.50;99852.59;1774679;78;20836;-61
2021/09/21 09:06:45;;;;;;;4.43;3.53;;;;;;;25.00;38.51;99851.91;1772874;78;21163;-71
2021/09/21 09:09:17;;;;;;;4.73;3.27;;;;;;;24.47;39.11;99859.55;1778898;78;21093;-63
2021/09/21 09:11:55;;;;;;;4.37;3.57;;;;;;;23.99;39.94;99862.70;1780071;78;21482;-61
2021/09/21 09:14:36;;;;;;;3.70;2.77;;;;;;;23.65;41.36;99860.84;1782072;78;20967;-75
2021/09/21 09:17:05;;;;;;;;;;;;;;;23.85;41.49;99855.89;1778744;78;21037;-66
2021/09/21 09:19:36;;;;;;;3.77;2.90;;;;;;;23.67;41.47;99849.94;1774996;78;21152;-63
2021/09/21 09:22:18;;;;;;;3.90;3.03;;;;;;;23.65;41.51;99856.06;1776838;78;21153;-79
2021/09/21 09:24:53;;;;;;;3.60;2.77;;;;;;;23.64;41.54;99844.62;1762927;79;21364;-65
2021/09/21 09:27:44;;;;;;;4.03;2.63;;;;;;;23.76;42.87;99848.28;1776637;78;21508;-67
2021/09/21 09:30:15;;;;;;;3.90;2.20;;;;;;;24.01;42.99;99840.56;1776171;78;21983;-65
2021/09/21 09:32:57;;;;;;;2.52;1.92;;;;;;;24.70;40.99;99842.45;1780446;78;21097;-66
2021/09/21 09:35:34;;;;;;;3.30;1.90;;;;;;;25.08;39.11;99829.94;1782016;78;20998;-66
2021/09/21 09:38:06;;;;;;;3.53;1.97;;;;;;;25.09;38.77;99835.52;1782160;78;21657;-65
2021/09/21 09:40:35;;;;;;;2.77;1.77;;;;;;;24.93;39.43;99831.50;1752612;78;21525;-64
2021/09/21 09:43:02;;;;;;;2.53;1.70;;;;;;;25.10;39.52;99828.34;1750492;78;21020;-66
2021/09/21 09:45:33;;;;;;;2.73;1.50;;;;;;;25.32;36.60;99827.73;1779991;78;22317;-71
2021/09/21 09:48:00;;;;;;;2.57;1.30;;;;;;;25.23;37.27;99824.41;1781679;78;21732;-65
2021/09/21 09:50:31;;;;;;;2.67;1.50;;;;;;;25.41;37.01;99827.31;1775620;78;20890;-70
2021/09/21 09:53:14;;;;;;;2.23;1.20;;;;;;;25.75;35.72;99817.66;1776255;78;20984;-66
2021/09/21 09:55:48;;;;;;;7.50;1.80;;;;;;;25.80;34.98;99816.80;1779167;78;21669;-65
2021/09/21 09:58:15;;;;;;;3.20;1.93;;;;;;;26.22;34.87;99808.28;1776901;78;21818;-69
2021/09/21 10:00:42;;;;;;;4.47;1.93;;;;;;;26.75;33.65;99809.85;1777093;78;21076;-67
2021/09/21 10:03:09;;;;;;;2.33;1.60;;;;;;;26.24;33.40;99813.55;1781292;78;22264;-66
2021/09/21 10:05:38;;;;;;;2.80;2.10;;;;;;;25.78;33.53;99817.09;1775211;79;20997;-63
2021/09/21 10:08:08;;;;;;;2.42;1.98;;;;;;;25.43;34.73;99821.94;1774657;79;21154;-65
2021/09/21 10:10:38;;;;;;;2.40;1.73;;;;;;;25.19;34.88;99814.06;1773958;79;21022;-68
2021/09/21 10:13:08;;;;;;;3.77;1.80;;;;;;;25.08;35.65;99811.27;1771128;79;21113;-63
2021/09/21 10:15:38;;;;;;;3.53;1.63;;;;;;;25.42;35.99;99811.03;1772516;79;21430;-63
2021/09/21 10:18:05;;;;;;;3.37;2.20;;;;;;;25.82;35.08;99810.08;1776514;79;21148;-64
2021/09/21 10:20:36;;;;;;;2.50;2.00;;;;;;;26.06;33.96;99811.77;1778486;79;20942;-63
2021/09/21 10:23:08;;;;;;;3.12;1.90;;;;;;;25.72;33.51;99822.23;1776790;79;21801;-63
2021/09/21 10:25:40;;;;;;;2.60;1.90;;;;;;;25.22;34.24;99812.13;1773477;79;21053;-64
2021/09/21 10:28:21;;;;;;;2.93;2.13;;;;;;;24.98;34.54;99818.08;1779246;79;21594;-74
2021/09/21 10:30:55;;;;;;;3.10;2.00;;;;;;;24.86;34.54;99822.52;1770534;79;21037;-66
2021/09/21 10:33:27;;;;;;;4.63;2.13;;;;;;;24.86;34.27;99814.52;1777329;79;21495;-69
2021/09/21 10:35:54;;;;;;;3.73;2.40;;;;;;;24.63;34.39;99813.51;1775147;79;22502;-65
2021/09/21 10:38:22;;;;;;;2.43;1.83;;;;;;;24.28;34.68;99822.17;1776938;79;20934;-66
2021/09/21 10:40:52;;;;;;;2.60;1.80;;;;;;;23.95;35.38;99817.75;1780190;79;21457;-66
2021/09/21 10:43:27;;;;;;;3.47;2.07;;;;;;;23.70;35.59;99828.88;1778032;79;20944;-79
2021/09/21 10:46:15;;;;;;;3.03;2.10;;;;;;;23.42;36.22;99828.31;1779367;79;21479;-64
2021/09/21 10:48:44;;;;;;;6.30;2.40;;;;;;;22.95;36.79;99823.84;1775478;79;22289;-67
2021/09/21 10:51:12;;;;;;;3.00;1.93;;;;;;;22.57;37.72;99831.45;1775012;79;20930;-79
2021/09/21 10:53:40;;;;;;;3.83;2.10;;;;;;;22.31;38.23;99831.28;1771037;79;21079;-63
2021/09/21 10:56:14;;;;;;;3.40;2.00;;;;;;;22.06;38.78;99826.30;1771530;79;21082;-64
2021/09/21 10:58:52;;;;;;;4.23;1.77;;;;;;;21.76;39.31;99827.14;1775230;79;21017;-63
2021/09/21 11:01:20;;;;;;;2.57;1.80;;;;;;;21.47;40.49;99831.39;1776818;79;21013;-63
2021/09/21 11:03:47;;;;;;;3.17;2.10;;;;;;;21.46;40.81;99831.14;1775394;79;21361;-61
2021/09/21 11:06:14;;;;;;;2.87;1.70;;;;;;;21.36;40.84;99827.41;1778740;78;21045;-61
2021/09/21 11:08:41;;;;;;;3.00;2.17;;;;;;;21.25;40.71;99824.98;1741326;78;21106;-75
2021/09/21 11:11:09;;;;;;;4.67;1.93;;;;;;;21.39;40.67;99826.09;1779179;78;20969;-74
2021/09/21 11:13:43;;;;;;;4.30;2.07;;;;;;;21.58;40.62;99825.03;1781565;78;21011;-65
2021/09/21 11:16:13;;;;;;;3.13;2.03;;;;;;;21.44;41.04;99822.14;1777226;78;21044;-63
2021/09/21 11:18:43;;;;;;;2.93;2.13;;;;;;;21.62;40.81;99820.25;1780165;78;20975;-72
2021/09/21 11:21:10;;;;;;;2.80;2.00;;;;;;;21.81;41.45;99816.52;1779462;78;21894;-63
2021/09/21 11:23:41;;;;;;;3.13;2.07;;;;;;;22.11;40.60;99816.19;1783203;79;21101;-63
2021/09/21 11:26:10;;;;;;;2.40;1.70;;;;;;;22.20;40.30;99823.09;1785004;78;21761;-62
2021/09/21 11:28:43;;;;;;;3.00;2.03;;;;;;;22.29;39.72;99815.63;1781636;78;20972;-64
2021/09/21 11:31:09;;;;;;;3.13;2.17;;;;;;;22.42;39.51;99813.45;1778599;78;21108;-62
2021/09/21 11:33:40;;;;;;;2.57;1.63;;;;;;;22.42;39.68;99816.11;1776828;78;21084;-63
2021/09/21 11:36:09;;;;;;;3.03;2.00;;;;;;;22.36;39.96;99821.20;1782336;78;21056;-61
2021/09/21 11:38:42;;;;;;;3.93;2.10;;;;;;;22.34;40.43;99817.47;1777269;78;21077;-71
2021/09/21 11:41:09;;;;;;;4.03;2.30;;;;;;;22.46;40.26;99823.25;1781765;78;22470;-63